createdAt,value
2018-09-12T17:16:39.337Z,64.85
2018-09-12T17:19:07.761Z,65.14
2018-09-12T17:30:15.342Z,63.47
2018-09-12T17:32:43.759Z,62.21
2018-09-12T17:35:12.056Z,62.80
2018-09-12T17:37:40.348Z,63.24
2018-09-12T17:40:08.603Z,63.13
2018-09-12T17:48:18.441Z,64.33
2018-09-12T17:50:46.726Z,64.28
2018-09-12T17:53:16.147Z,63.44
2018-09-12T17:55:44.500Z,64.65
2018-09-12T17:58:12.787Z,64.42
2018-09-12T18:00:41.153Z,65.32
2018-09-12T18:03:09.449Z,64.77
2018-09-12T18:05:37.768Z,63.87
2018-09-12T18:08:06.176Z,64.90
2018-09-12T18:10:34.526Z,64.32
2018-09-12T18:13:02.860Z,64.75
2018-09-12T19:18:50.025Z,65.87
2018-09-12T19:21:18.511Z,66.58
2018-09-12T19:23:47.801Z,66.15
2018-09-12T19:26:16.271Z,66.98
2018-09-12T19:28:44.587Z,65.37
2018-09-12T19:31:12.916Z,65.62
2018-09-12T19:33:41.348Z,67.11
2018-09-12T19:36:09.731Z,67.21
2018-09-12T19:38:38.044Z,68.08
2018-09-12T19:41:06.432Z,67.68
2018-09-12T19:43:34.765Z,67.85
2018-09-12T19:46:03.065Z,67.83
2018-09-12T19:48:31.412Z,68.24
2018-09-12T19:51:00.737Z,68.72
2018-09-12T19:53:29.059Z,67.37
2018-09-12T19:55:57.363Z,67.46
2018-09-12T19:58:25.701Z,66.49
2018-09-12T20:00:54.077Z,67.21
2018-09-12T20:03:22.413Z,67.89
2018-09-12T20:05:50.761Z,67.38
2018-09-12T20:08:19.111Z,67.27
2018-09-12T20:10:47.430Z,67.89
2018-09-12T20:25:19.724Z,68.22
2018-09-12T20:27:48.018Z,66.04
2018-09-12T21:18:38.129Z,70.33
2018-09-12T23:13:28.900Z,74.41
2018-09-12T23:15:57.307Z,73.78
2018-09-12T23:18:25.891Z,74.78
2018-09-12T23:26:39.481Z,73.62
2018-09-12T23:29:08.824Z,74.59
2018-09-12T23:31:37.198Z,74.88
2018-09-12T23:34:05.669Z,75.18
2018-09-12T23:36:34.056Z,76.27
2018-09-12T23:39:02.436Z,77.07
2018-09-12T23:41:30.848Z,76.35
2018-09-12T23:43:59.244Z,75.85
2018-09-12T23:49:18.567Z,76.24
2018-09-12T23:51:46.902Z,75.29
2018-09-12T23:54:32.985Z,75.99
2018-09-12T23:57:01.328Z,76.77
